Time;durP1;ratioP1;P1;durP2;ratioP2;P2;SDS_P1;SDS_P2;PMS_P1;PMS_P2;Temp;Humidity;BMP_temperature;BMP_pressure;BME280_temperature;BME280_humidity;BME280_pressure;Samples;Min_cycle;Max_cycle;Signal;HPM_P1;HPM_P2
2023/08/03 00:01:31;;;;;;;0.30;0.30;;;16.40;99.90;;;;;;5093721;28;20115;-71
2023/08/03 00:04:00;;;;;;;0.30;0.30;;;16.40;99.90;;;;;;5093704;28;20402;-71
2023/08/03 00:06:27;;;;;;;0.22;0.22;;;16.40;99.90;;;;;;5093659;28;20086;-72
2023/08/03 00:08:53;;;;;;;;;;;16.40;99.90;;;;;;5094049;28;20036;-72
2023/08/03 00:11:18;;;;;;;0.30;0.30;;;16.40;99.90;;;;;;5093525;28;19985;-72
2023/08/03 00:13:44;;;;;;;0.70;0.70;;;16.40;99.90;;;;;;5096480;28;20075;-72
2023/08/03 00:16:10;;;;;;;0.30;0.30;;;16.40;99.90;;;;;;5097607;28;20084;-72
2023/08/03 00:18:35;;;;;;;2.60;0.63;;;16.40;99.90;;;;;;5097619;28;20049;-72
2023/08/03 00:21:01;;;;;;;0.30;0.30;;;16.30;99.90;;;;;;5097329;28;20044;-72
2023/08/03 00:23:26;;;;;;;0.60;0.60;;;16.40;99.90;;;;;;5097444;28;20079;-72
2023/08/03 00:25:52;;;;;;;0.30;0.30;;;16.30;99.90;;;;;;5097348;28;20047;-72
2023/08/03 00:28:21;;;;;;;0.30;0.30;;;16.30;99.90;;;;;;5097298;28;20036;-72
2023/08/03 00:30:46;;;;;;;0.30;0.30;;;16.40;99.90;;;;;;5097607;28;20133;-72
2023/08/03 00:33:12;;;;;;;0.30;0.30;;;16.30;99.90;;;;;;5097254;28;20486;-72
2023/08/03 00:35:37;;;;;;;0.30;0.30;;;16.40;99.90;;;;;;5097177;28;20036;-72
2023/08/03 00:38:03;;;;;;;0.30;0.30;;;16.30;99.90;;;;;;5097187;28;20123;-72
2023/08/03 00:40:29;;;;;;;0.30;0.30;;;16.30;99.90;;;;;;5096728;28;20468;-72
2023/08/03 00:42:55;;;;;;;0.37;0.37;;;16.30;99.90;;;;;;5096860;28;20036;-72
2023/08/03 00:45:21;;;;;;;0.40;0.40;;;16.30;99.90;;;;;;5096959;28;20553;-72
2023/08/03 00:47:46;;;;;;;0.43;0.43;;;16.30;99.90;;;;;;5097030;28;20044;-72
2023/08/03 00:50:12;;;;;;;0.30;0.30;;;16.10;99.90;;;;;;5096010;28;20047;-72
2023/08/03 00:52:38;;;;;;;0.30;0.30;;;16.10;99.90;;;;;;5097070;28;20124;-72
2023/08/03 00:55:04;;;;;;;0.30;0.30;;;16.20;99.90;;;;;;5096856;28;20083;-72
2023/08/03 00:57:30;;;;;;;0.30;0.30;;;16.10;99.90;;;;;;5096584;28;20529;-72
2023/08/03 00:59:56;;;;;;;0.40;0.40;;;16.10;99.90;;;;;;5096711;28;20028;-72
2023/08/03 01:02:22;;;;;;;0.30;0.30;;;16.10;99.90;;;;;;5096753;28;20092;-72
2023/08/03 01:04:48;;;;;;;0.30;0.30;;;16.10;99.90;;;;;;5096640;28;20069;-72
2023/08/03 01:07:14;;;;;;;0.98;0.40;;;16.10;99.90;;;;;;5096662;28;20047;-72
2023/08/03 01:09:40;;;;;;;0.37;0.37;;;16.00;99.90;;;;;;5096533;28;20353;-72
2023/08/03 01:12:06;;;;;;;0.30;0.30;;;16.10;99.90;;;;;;5097023;28;20353;-72
2023/08/03 01:14:32;;;;;;;0.30;0.30;;;16.00;99.90;;;;;;5096634;28;20089;-72
2023/08/03 01:16:57;;;;;;;0.30;0.30;;;16.00;99.90;;;;;;5096313;28;20815;-71
2023/08/03 01:19:23;;;;;;;0.30;0.30;;;16.00;99.90;;;;;;5096664;28;20048;-72
2023/08/03 01:21:50;;;;;;;0.73;0.60;;;16.00;99.90;;;;;;5096358;28;20048;-72
2023/08/03 01:24:16;;;;;;;0.30;0.30;;;16.00;99.90;;;;;;5095149;28;20117;-71
2023/08/03 01:26:42;;;;;;;0.30;0.30;;;16.00;99.90;;;;;;5096248;28;20040;-72
2023/08/03 01:29:08;;;;;;;0.20;0.20;;;16.00;99.90;;;;;;5096201;28;20483;-72
2023/08/03 01:31:34;;;;;;;0.20;0.20;;;16.00;99.90;;;;;;5095947;28;20047;-72
2023/08/03 01:34:01;;;;;;;0.30;0.30;;;16.00;99.90;;;;;;5096306;28;20036;-72
2023/08/03 01:36:26;;;;;;;0.20;0.20;;;16.00;99.90;;;;;;5095915;28;20047;-72
2023/08/03 01:39:08;;;;;;;0.30;0.30;;;16.10;99.90;;;;;;5095850;28;20449;-72
2023/08/03 01:41:35;;;;;;;0.20;0.20;;;16.00;99.90;;;;;;5095954;28;20048;-71
2023/08/03 01:44:17;;;;;;;0.20;0.20;;;16.10;99.90;;;;;;5095945;28;20118;-72
2023/08/03 01:46:43;;;;;;;0.30;0.30;;;16.00;99.90;;;;;;5095875;28;20044;-72
2023/08/03 01:49:09;;;;;;;0.27;0.27;;;16.10;99.90;;;;;;5095926;28;20039;-72
2023/08/03 01:51:34;;;;;;;0.30;0.30;;;16.10;99.90;;;;;;5095759;28;20511;-72
2023/08/03 01:54:00;;;;;;;0.30;0.30;;;16.10;99.90;;;;;;5095687;28;20460;-72
2023/08/03 01:56:25;;;;;;;0.20;0.20;;;16.00;99.90;;;;;;5095958;28;20040;-72
2023/08/03 01:58:51;;;;;;;0.30;0.30;;;16.00;99.90;;;;;;5095264;28;20047;-72
2023/08/03 02:01:17;;;;;;;0.30;0.30;;;16.00;99.90;;;;;;5095530;28;20131;-72
2023/08/03 02:03:42;;;;;;;0.30;0.30;;;16.00;99.90;;;;;;5095518;28;20050;-72
2023/08/03 02:06:08;;;;;;;0.30;0.30;;;16.00;99.90;;;;;;5095445;28;20483;-72
2023/08/03 02:08:33;;;;;;;0.30;0.30;;;16.00;99.90;;;;;;5095755;28;20044;-72
2023/08/03 02:10:59;;;;;;;0.30;0.30;;;16.00;99.90;;;;;;5095555;28;20075;-72
2023/08/03 02:13:24;;;;;;;0.30;0.30;;;16.00;99.90;;;;;;5095318;28;20032;-72
2023/08/03 02:15:50;;;;;;;0.30;0.30;;;16.00;99.90;;;;;;5095316;28;20051;-72
2023/08/03 02:18:16;;;;;;;0.30;0.30;;;16.00;99.90;;;;;;5094020;28;20048;-72
2023/08/03 02:20:41;;;;;;;0.30;0.30;;;16.00;99.90;;;;;;5094780;28;20537;-72
2023/08/03 02:23:07;;;;;;;0.30;0.30;;;16.10;99.90;;;;;;5095197;28;20047;-72
2023/08/03 02:25:33;;;;;;;0.30;0.30;;;16.10;99.90;;;;;;5095077;28;20054;-72
2023/08/03 02:27:58;;;;;;;0.30;0.30;;;16.10;99.90;;;;;;5095051;28;20566;-72
2023/08/03 02:30:24;;;;;;;0.30;0.30;;;16.10;99.90;;;;;;5094735;28;20032;-72
2023/08/03 02:32:49;;;;;;;0.40;0.40;;;16.00;99.90;;;;;;5094970;28;20521;-72
2023/08/03 02:35:15;;;;;;;0.40;0.40;;;16.10;99.90;;;;;;5094683;28;20079;-72
2023/08/03 02:37:40;;;;;;;0.30;0.30;;;16.10;99.90;;;;;;5095083;28;20032;-72
2023/08/03 02:40:08;;;;;;;0.30;0.30;;;16.10;99.90;;;;;;5095146;28;20039;-72
2023/08/03 02:42:37;;;;;;;0.40;0.40;;;16.10;99.90;;;;;;5094767;28;20044;-73
2023/08/03 02:45:03;;;;;;;0.30;0.30;;;16.10;99.90;;;;;;5094710;28;20066;-72
2023/08/03 02:47:28;;;;;;;0.37;0.37;;;16.10;99.90;;;;;;5094729;28;20048;-72
2023/08/03 02:49:54;;;;;;;0.30;0.30;;;16.10;99.90;;;;;;5094675;28;20530;-72
2023/08/03 02:52:20;;;;;;;0.40;0.40;;;16.10;99.90;;;;;;5095335;28;20043;-72
2023/08/03 02:54:45;;;;;;;0.55;0.45;;;16.10;99.90;;;;;;5094599;28;20040;-72
2023/08/03 02:57:11;;;;;;;0.47;0.40;;;16.10;99.90;;;;;;5094678;28;20036;-73
2023/08/03 02:59:36;;;;;;;0.50;0.50;;;16.10;99.90;;;;;;5094645;28;20039;-72
2023/08/03 03:02:02;;;;;;;0.30;0.30;;;16.20;99.90;;;;;;5094522;28;20126;-72
2023/08/03 03:04:27;;;;;;;0.50;0.50;;;16.10;99.90;;;;;;5094522;28;20357;-72
2023/08/03 03:06:53;;;;;;;0.50;0.50;;;16.20;99.90;;;;;;5094305;28;20058;-72
2023/08/03 03:09:19;;;;;;;0.50;0.50;;;16.20;99.90;;;;;;5094022;28;20055;-72
2023/08/03 03:11:44;;;;;;;0.30;0.30;;;16.20;99.90;;;;;;5094281;28;20040;-72
2023/08/03 03:14:10;;;;;;;0.33;0.33;;;16.20;99.90;;;;;;5094462;28;20352;-72
2023/08/03 03:16:35;;;;;;;0.60;0.60;;;16.20;99.90;;;;;;5094393;28;20048;-72
2023/08/03 03:19:01;;;;;;;0.30;0.30;;;16.10;99.90;;;;;;5093738;28;20048;-72
2023/08/03 03:21:27;;;;;;;0.30;0.30;;;16.20;99.90;;;;;;5092857;28;20044;-72
2023/08/03 03:23:52;;;;;;;0.40;0.40;;;16.20;99.90;;;;;;5094530;28;20050;-72
2023/08/03 03:26:18;;;;;;;0.30;0.30;;;16.20;99.90;;;;;;5094417;28;20472;-71
2023/08/03 03:28:43;;;;;;;0.30;0.30;;;16.20;99.90;;;;;;5094168;28;20040;-72
2023/08/03 03:31:09;;;;;;;0.40;0.40;;;16.20;99.90;;;;;;5093995;28;20461;-71
2023/08/03 03:33:34;;;;;;;0.30;0.30;;;16.20;99.90;;;;;;5093969;28;20036;-72
2023/08/03 03:36:00;;;;;;;0.30;0.30;;;16.30;99.90;;;;;;5094132;28;20056;-72
2023/08/03 03:38:26;;;;;;;0.50;0.50;;;16.30;99.90;;;;;;5094414;28;20411;-72
2023/08/03 03:40:51;;;;;;;0.40;0.40;;;16.20;99.90;;;;;;5093810;28;20032;-72
2023/08/03 03:43:17;;;;;;;0.50;0.50;;;16.30;99.90;;;;;;5094296;28;20035;-72
2023/08/03 03:45:42;;;;;;;0.30;0.30;;;16.20;99.90;;;;;;5093966;28;20058;-72
2023/08/03 03:48:08;;;;;;;0.30;0.30;;;16.30;99.90;;;;;;5098082;28;20078;-72
2023/08/03 03:50:34;;;;;;;0.40;0.40;;;16.30;99.90;;;;;;5100549;28;20039;-72
2023/08/03 03:52:59;;;;;;;0.50;0.40;;;16.30;99.90;;;;;;5100245;28;20044;-72
2023/08/03 03:55:25;;;;;;;0.30;0.30;;;16.30;99.90;;;;;;5100515;28;20360;-72
2023/08/03 03:57:50;;;;;;;0.87;0.63;;;16.20;99.90;;;;;;5100434;28;20039;-72
2023/08/03 04:00:16;;;;;;;0.50;0.40;;;16.30;99.90;;;;;;5100619;28;20040;-72
2023/08/03 04:02:42;;;;;;;0.47;0.30;;;16.30;99.90;;;;;;5100472;28;20044;-71
2023/08/03 04:05:07;;;;;;;0.30;0.30;;;16.30;99.90;;;;;;5100515;28;20047;-72
2023/08/03 04:07:33;;;;;;;0.30;0.30;;;16.20;99.90;;;;;;5100355;28;20043;-72
2023/08/03 04:09:59;;;;;;;0.30;0.30;;;16.30;99.90;;;;;;5100374;28;20521;-72
2023/08/03 04:12:24;;;;;;;0.97;0.70;;;16.30;99.90;;;;;;5100412;28;20044;-72
2023/08/03 04:14:50;;;;;;;0.30;0.30;;;16.30;99.90;;;;;;5100589;28;20028;-72
2023/08/03 04:17:15;;;;;;;0.30;0.30;;;16.30;99.90;;;;;;5100351;28;20460;-72
2023/08/03 04:19:41;;;;;;;0.63;0.63;;;16.30;99.90;;;;;;5100156;28;20094;-72
2023/08/03 04:22:06;;;;;;;0.30;0.30;;;16.30;99.90;;;;;;5100164;28;20044;-72
2023/08/03 04:24:32;;;;;;;0.50;0.50;;;16.30;99.90;;;;;;5099129;28;20046;-72
2023/08/03 04:26:58;;;;;;;0.60;0.60;;;16.30;99.90;;;;;;5100224;28;20127;-72
2023/08/03 04:29:23;;;;;;;0.30;0.30;;;16.30;99.90;;;;;;5100360;28;20040;-72
2023/08/03 04:31:49;;;;;;;0.30;0.30;;;16.30;99.90;;;;;;5100210;28;20032;-72
2023/08/03 04:34:14;;;;;;;0.40;0.40;;;16.30;99.90;;;;;;5100173;28;20032;-72
2023/08/03 04:36:42;;;;;;;0.40;0.40;;;16.30;99.90;;;;;;5100049;28;20066;-72
2023/08/03 04:39:08;;;;;;;0.30;0.30;;;16.30;99.90;;;;;;5100544;28;20123;-72
2023/08/03 04:41:33;;;;;;;0.30;0.30;;;16.30;99.90;;;;;;5100682;28;20120;-72
2023/08/03 04:43:59;;;;;;;0.47;0.47;;;16.30;99.90;;;;;;5100519;28;20048;-72
2023/08/03 04:46:25;;;;;;;0.30;0.30;;;16.30;99.90;;;;;;5100269;28;20505;-72
2023/08/03 04:48:50;;;;;;;0.27;0.27;;;16.30;99.90;;;;;;5100224;28;20039;-72
2023/08/03 04:51:16;;;;;;;0.40;0.40;;;16.30;99.90;;;;;;5100049;28;20043;-72
2023/08/03 04:53:41;;;;;;;0.40;0.40;;;16.40;99.90;;;;;;5100005;28;20551;-72
2023/08/03 04:56:07;;;;;;;0.30;0.30;;;16.30;99.90;;;;;;5100527;28;20074;-72
2023/08/03 04:58:33;;;;;;;1.50;0.80;;;16.40;99.90;;;;;;5099170;28;20036;-70
2023/08/03 05:00:58;;;;;;;0.47;0.40;;;16.40;99.90;;;;;;5096846;28;20032;-70
2023/08/03 05:03:24;;;;;;;0.30;0.30;;;16.40;99.90;;;;;;5096767;28;20450;-70
2023/08/03 05:05:50;;;;;;;0.30;0.30;;;16.50;99.90;;;;;;5096651;28;20457;-71
2023/08/03 05:08:15;;;;;;;0.30;0.30;;;16.40;99.90;;;;;;5096582;28;20129;-70
2023/08/03 05:10:41;;;;;;;0.30;0.30;;;16.40;99.90;;;;;;5096578;28;20124;-71
2023/08/03 05:13:06;;;;;;;0.30;0.30;;;16.50;99.90;;;;;;5096294;28;20370;-70
2023/08/03 05:15:32;;;;;;;0.40;0.40;;;16.40;99.90;;;;;;5096488;28;20035;-70
2023/08/03 05:18:01;;;;;;;0.30;0.30;;;16.50;99.90;;;;;;5096204;28;20035;-71
2023/08/03 05:20:27;;;;;;;0.30;0.30;;;16.50;99.90;;;;;;5096350;28;20126;-71
2023/08/03 05:22:52;;;;;;;0.40;0.40;;;16.60;99.90;;;;;;5096400;28;20040;-70
2023/08/03 05:25:18;;;;;;;0.30;0.30;;;16.60;99.90;;;;;;5096335;28;20069;-71
2023/08/03 05:27:44;;;;;;;0.30;0.30;;;16.60;99.90;;;;;;5095779;28;20039;-71
2023/08/03 05:30:09;;;;;;;0.40;0.40;;;16.70;99.90;;;;;;5096286;28;20048;-70
2023/08/03 05:32:36;;;;;;;0.40;0.40;;;16.70;99.90;;;;;;5096375;28;20379;-71
2023/08/03 05:35:02;;;;;;;0.30;0.30;;;16.70;99.90;;;;;;5096136;28;20036;-71
2023/08/03 05:37:28;;;;;;;0.30;0.30;;;16.70;99.90;;;;;;5096099;28;20044;-71
2023/08/03 05:39:54;;;;;;;0.30;0.30;;;16.70;99.90;;;;;;5095969;28;20368;-71
2023/08/03 05:42:20;;;;;;;0.30;0.30;;;16.80;99.90;;;;;;5095815;28;20388;-71
2023/08/03 05:44:45;;;;;;;0.33;0.33;;;16.80;99.90;;;;;;5095930;28;20040;-71
2023/08/03 05:47:15;;;;;;;0.33;0.33;;;16.70;99.90;;;;;;5096050;28;20032;-72
2023/08/03 05:49:40;;;;;;;0.40;0.40;;;16.80;99.90;;;;;;5095848;28;20372;-71
2023/08/03 05:52:09;;;;;;;0.20;0.20;;;16.80;99.90;;;;;;5095733;28;20044;-71
2023/08/03 05:54:35;;;;;;;1.95;0.90;;;16.80;99.90;;;;;;5096073;28;20046;-72
2023/08/03 05:57:01;;;;;;;0.57;0.50;;;16.80;99.90;;;;;;5095627;28;20111;-71
2023/08/03 05:59:27;;;;;;;0.30;0.30;;;16.80;99.90;;;;;;5095393;28;20036;-75
2023/08/03 06:01:52;;;;;;;1.40;0.80;;;16.80;99.90;;;;;;5095952;28;20123;-73
2023/08/03 06:04:18;;;;;;;0.27;0.27;;;16.80;99.90;;;;;;5095351;28;20071;-72
2023/08/03 06:06:45;;;;;;;0.50;0.50;;;16.80;99.90;;;;;;5095272;28;20044;-72
2023/08/03 06:09:12;;;;;;;0.70;0.60;;;16.80;99.90;;;;;;5095888;28;20522;-73
2023/08/03 06:11:38;;;;;;;0.60;0.60;;;16.90;99.90;;;;;;5094853;28;20122;-71
2023/08/03 06:14:10;;;;;;;0.30;0.30;;;16.80;99.90;;;;;;5095279;28;20431;-70
2023/08/03 06:16:36;;;;;;;0.30;0.30;;;16.80;99.90;;;;;;5095342;28;20464;-75
2023/08/03 06:19:01;;;;;;;0.40;0.40;;;16.90;99.90;;;;;;5095266;28;20047;-74
2023/08/03 06:21:28;;;;;;;0.37;0.37;;;17.00;99.90;;;;;;5094907;28;20036;-73
2023/08/03 06:23:57;;;;;;;0.30;0.30;;;17.00;99.90;;;;;;5095143;28;20036;-71
2023/08/03 06:26:24;;;;;;;0.38;0.38;;;17.10;99.90;;;;;;5093863;28;20040;-73
2023/08/03 06:28:53;;;;;;;0.32;0.32;;;17.20;99.90;;;;;;5095098;28;20085;-76
2023/08/03 06:31:22;;;;;;;0.35;0.35;;;17.30;99.90;;;;;;5095016;28;20043;-76
2023/08/03 06:33:48;;;;;;;0.30;0.30;;;17.40;99.90;;;;;;5094891;28;20093;-76
2023/08/03 06:36:23;;;;;;;0.30;0.30;;;17.40;99.90;;;;;;5094929;28;20122;-74
2023/08/03 06:38:49;;;;;;;0.30;0.30;;;17.50;99.90;;;;;;5095394;28;20028;-73
2023/08/03 06:41:15;;;;;;;0.70;0.70;;;17.50;99.90;;;;;;5093231;28;20498;-73
2023/08/03 06:43:41;;;;;;;0.30;0.30;;;17.60;99.90;;;;;;5094452;28;20036;-72
2023/08/03 06:46:07;;;;;;;0.60;0.60;;;17.70;99.90;;;;;;5094650;28;20035;-74
2023/08/03 06:48:33;;;;;;;0.30;0.30;;;17.70;99.90;;;;;;5094528;28;20774;-77
2023/08/03 06:51:01;;;;;;;0.30;0.30;;;17.80;99.90;;;;;;5094387;28;20040;-74
2023/08/03 06:53:26;;;;;;;0.30;0.30;;;18.00;99.90;;;;;;5094502;28;20368;-72
2023/08/03 06:55:52;;;;;;;0.30;0.30;;;18.20;99.90;;;;;;5094437;28;20058;-74
2023/08/03 06:58:18;;;;;;;0.27;0.27;;;18.30;99.90;;;;;;5094387;28;20048;-74
2023/08/03 07:00:44;;;;;;;0.23;0.23;;;18.50;99.90;;;;;;5094116;28;20039;-75
2023/08/03 07:03:11;;;;;;;0.30;0.30;;;18.70;99.90;;;;;;5094275;28;20460;-73
2023/08/03 07:05:38;;;;;;;0.68;0.40;;;18.70;99.90;;;;;;5094197;28;20079;-73
2023/08/03 07:08:03;;;;;;;0.20;0.20;;;18.90;99.90;;;;;;5094241;28;20050;-72
2023/08/03 07:10:29;;;;;;;1.10;0.77;;;18.90;99.90;;;;;;5094276;28;20036;-74
2023/08/03 07:12:55;;;;;;;0.53;0.53;;;19.00;99.90;;;;;;5094218;28;20119;-73
2023/08/03 07:15:20;;;;;;;0.30;0.30;;;18.90;99.90;;;;;;5093963;28;20040;-75
2023/08/03 07:17:47;;;;;;;0.70;0.70;;;18.90;99.90;;;;;;5093855;28;20491;-75
2023/08/03 07:20:13;;;;;;;0.50;0.30;;;18.90;99.90;;;;;;5094211;28;20078;-74
2023/08/03 07:22:39;;;;;;;0.30;0.30;;;18.90;99.90;;;;;;5093433;28;20043;-70
2023/08/03 07:25:05;;;;;;;0.30;0.30;;;19.10;99.90;;;;;;5093937;28;20032;-71
2023/08/03 07:27:32;;;;;;;0.30;0.30;;;19.20;99.90;;;;;;5093907;28;20047;-71
2023/08/03 07:29:58;;;;;;;0.90;0.38;;;19.30;99.90;;;;;;5093628;28;20036;-71
2023/08/03 07:32:24;;;;;;;0.30;0.30;;;19.40;99.90;;;;;;5093520;28;20136;-71
2023/08/03 07:34:49;;;;;;;0.30;0.30;;;19.50;99.90;;;;;;5093504;28;20075;-74
2023/08/03 07:37:15;;;;;;;0.30;0.30;;;19.70;99.90;;;;;;5094000;28;20044;-74
2023/08/03 07:39:41;;;;;;;0.30;0.30;;;19.80;99.90;;;;;;5093749;28;20093;-73
2023/08/03 07:42:06;;;;;;;0.53;0.53;;;20.10;99.90;;;;;;5093729;28;20093;-72
2023/08/03 07:44:32;;;;;;;0.37;0.37;;;20.10;99.90;;;;;;5093923;28;20044;-73
2023/08/03 07:46:57;;;;;;;0.37;0.37;;;20.10;99.90;;;;;;5093565;28;20437;-71
2023/08/03 07:49:23;;;;;;;0.30;0.30;;;20.10;99.90;;;;;;5093403;28;20044;-73
2023/08/03 07:51:49;;;;;;;0.40;0.40;;;19.90;99.90;;;;;;5093696;28;20369;-74
2023/08/03 07:54:15;;;;;;;0.87;0.47;;;19.70;99.90;;;;;;5093680;28;20048;-80
2023/08/03 07:56:42;;;;;;;0.30;0.30;;;19.70;99.90;;;;;;5093438;28;20543;-78
2023/08/03 07:59:10;;;;;;;0.85;0.40;;;19.50;99.90;;;;;;5093655;28;20087;-77
2023/08/03 08:01:36;;;;;;;0.30;0.30;;;19.40;99.90;;;;;;5093462;28;20043;-75
2023/08/03 08:04:02;;;;;;;0.30;0.30;;;19.30;99.90;;;;;;5093638;28;20036;-77
2023/08/03 08:06:28;;;;;;;0.20;0.20;;;19.30;99.90;;;;;;5093727;28;20422;-75
2023/08/03 08:08:54;;;;;;;0.40;0.40;;;19.30;99.90;;;;;;5093981;28;20149;-76
2023/08/03 08:11:20;;;;;;;0.73;0.60;;;19.50;99.90;;;;;;5093690;28;20093;-76
2023/08/03 08:13:45;;;;;;;0.37;0.37;;;19.70;99.90;;;;;;5093832;28;20040;-78
2023/08/03 08:16:13;;;;;;;0.30;0.30;;;19.80;99.90;;;;;;5093954;28;20109;-77
2023/08/03 08:18:39;;;;;;;0.30;0.30;;;19.80;99.90;;;;;;5093218;28;20064;-71
2023/08/03 08:21:07;;;;;;;0.50;0.50;;;20.00;99.90;;;;;;5093721;28;20047;-73
2023/08/03 08:23:33;;;;;;;0.30;0.30;;;20.10;99.90;;;;;;5093252;28;20051;-72
2023/08/03 08:25:59;;;;;;;0.47;0.47;;;20.30;99.90;;;;;;5093532;28;20047;-71
2023/08/03 08:28:26;;;;;;;0.30;0.30;;;20.50;99.90;;;;;;5093006;28;20467;-73
2023/08/03 08:30:52;;;;;;;0.30;0.30;;;20.60;99.90;;;;;;5092730;28;20090;-71
2023/08/03 08:33:19;;;;;;;0.40;0.40;;;20.70;99.90;;;;;;5093852;28;20044;-72
2023/08/03 08:35:45;;;;;;;;;;;20.90;99.90;;;;;;5097451;28;20047;-73
2023/08/03 08:38:12;;;;;;;0.40;0.40;;;21.00;99.90;;;;;;5097174;28;19916;-72
2023/08/03 08:40:39;;;;;;;0.30;0.30;;;21.00;99.90;;;;;;5096937;28;20036;-70
2023/08/03 08:43:05;;;;;;;0.30;0.30;;;21.00;99.90;;;;;;5096740;28;20091;-72
2023/08/03 08:45:35;;;;;;;0.30;0.30;;;20.90;99.90;;;;;;5096629;28;20069;-74
2023/08/03 08:48:01;;;;;;;0.35;0.35;;;20.90;99.90;;;;;;5096919;28;20488;-77
2023/08/03 08:50:27;;;;;;;0.20;0.20;;;20.90;99.90;;;;;;5095996;28;20047;-75
2023/08/03 08:52:53;;;;;;;0.30;0.30;;;20.70;99.90;;;;;;5094978;28;20052;-74
2023/08/03 08:55:24;;;;;;;0.20;0.20;;;20.50;99.90;;;;;;5096285;28;20047;-74
2023/08/03 08:57:51;;;;;;;0.65;0.30;;;20.60;99.90;;;;;;5096766;28;20422;-76
2023/08/03 09:00:17;;;;;;;0.20;0.20;;;20.70;99.90;;;;;;5096376;28;20392;-75
2023/08/03 09:02:43;;;;;;;0.20;0.20;;;20.90;99.90;;;;;;5096509;28;20036;-75
2023/08/03 09:05:17;;;;;;;0.20;0.20;;;20.90;99.90;;;;;;5096641;28;20044;-74
2023/08/03 09:07:43;;;;;;;0.25;0.25;;;21.00;99.90;;;;;;5096536;28;20040;-74
2023/08/03 09:10:10;;;;;;;0.40;0.40;;;21.00;99.90;;;;;;5096281;28;20043;-75
2023/08/03 09:12:39;;;;;;;0.20;0.20;;;21.10;99.90;;;;;;5096345;28;20376;-74
2023/08/03 09:15:05;;;;;;;0.30;0.30;;;21.30;99.90;;;;;;5096151;28;20040;-74
2023/08/03 09:17:31;;;;;;;0.20;0.20;;;21.40;99.90;;;;;;5096350;28;20036;-75
2023/08/03 09:19:57;;;;;;;0.30;0.30;;;21.50;99.90;;;;;;5096366;28;20087;-74
2023/08/03 09:22:24;;;;;;;0.20;0.20;;;21.60;99.90;;;;;;5096324;28;20492;-74
2023/08/03 09:25:08;;;;;;;0.22;0.22;;;21.80;99.90;;;;;;5095935;28;20353;-74
2023/08/03 09:27:46;;;;;;;0.20;0.20;;;22.00;99.90;;;;;;5095961;28;20072;-73
2023/08/03 09:30:12;;;;;;;0.20;0.20;;;22.00;99.90;;;;;;5095784;28;20044;-74
2023/08/03 09:32:38;;;;;;;0.20;0.20;;;22.00;99.90;;;;;;5096150;28;20509;-73
2023/08/03 09:35:25;;;;;;;0.30;0.30;;;22.00;99.90;;;;;;5095857;28;20487;-75
2023/08/03 09:37:53;;;;;;;0.20;0.20;;;21.90;99.90;;;;;;5095830;28;20422;-75
2023/08/03 09:40:20;;;;;;;0.20;0.20;;;22.00;99.90;;;;;;5095877;28;20032;-74
2023/08/03 09:42:47;;;;;;;0.20;0.20;;;22.10;99.90;;;;;;5095604;28;20094;-73
2023/08/03 09:45:13;;;;;;;0.20;0.20;;;22.20;99.90;;;;;;5094843;28;20050;-74
2023/08/03 09:47:40;;;;;;;0.22;0.22;;;22.20;99.90;;;;;;5095970;28;20036;-75
2023/08/03 09:50:06;;;;;;;;;;;22.20;99.90;;;;;;5096381;28;20047;-75
2023/08/03 09:52:41;;;;;;;0.30;0.30;;;22.40;99.90;;;;;;5095844;28;19973;-74
2023/08/03 09:55:20;;;;;;;0.28;0.28;;;22.50;99.90;;;;;;5096099;28;20081;-75
2023/08/03 09:58:06;;;;;;;0.30;0.30;;;22.40;99.90;;;;;;5096232;28;20452;-75
2023/08/03 10:00:33;;;;;;;0.20;0.20;;;22.40;99.90;;;;;;5095505;28;20426;-74
2023/08/03 10:03:07;;;;;;;0.20;0.20;;;22.50;99.90;;;;;;5095567;28;20048;-74
2023/08/03 10:05:38;;;;;;;0.20;0.20;;;22.50;99.90;;;;;;5095907;28;20039;-74
2023/08/03 10:08:28;;;;;;;0.30;0.30;;;22.70;99.90;;;;;;5095457;28;20472;-75
2023/08/03 10:11:02;;;;;;;0.20;0.20;;;22.80;99.90;;;;;;5095535;28;20138;-75
2023/08/03 10:13:31;;;;;;;0.20;0.20;;;23.00;99.90;;;;;;5095301;28;20050;-75
2023/08/03 10:15:57;;;;;;;0.30;0.30;;;22.90;99.90;;;;;;5095239;28;20040;-75
2023/08/03 10:18:24;;;;;;;0.20;0.20;;;22.80;99.90;;;;;;5094867;28;20109;-76
2023/08/03 10:20:50;;;;;;;0.20;0.20;;;22.90;99.90;;;;;;5095313;28;20036;-75
2023/08/03 10:23:19;;;;;;;0.20;0.20;;;23.10;99.90;;;;;;5095253;28;20032;-75
2023/08/03 10:25:54;;;;;;;0.32;0.32;;;23.30;99.90;;;;;;5095048;28;20470;-72
2023/08/03 10:28:21;;;;;;;0.20;0.20;;;23.40;99.90;;;;;;5094688;28;20380;-73
2023/08/03 10:31:15;;;;;;;0.20;0.20;;;23.30;99.90;;;;;;5094917;28;20047;-72
2023/08/03 10:33:47;;;;;;;0.20;0.20;;;23.20;99.90;;;;;;5095102;28;20048;-74
2023/08/03 10:36:28;;;;;;;0.30;0.30;;;23.00;99.90;;;;;;5094764;28;20499;-72
2023/08/03 10:39:00;;;;;;;0.20;0.20;;;22.90;99.90;;;;;;5095424;28;20395;-74
2023/08/03 10:41:36;;;;;;;0.20;0.20;;;22.80;99.90;;;;;;5094850;28;20039;-74
2023/08/03 10:44:12;;;;;;;0.20;0.20;;;22.70;99.90;;;;;;5094998;28;20036;-73
2023/08/03 10:46:42;;;;;;;0.20;0.20;;;22.60;99.90;;;;;;5094663;28;20044;-75
2023/08/03 10:49:20;;;;;;;0.20;0.20;;;22.50;99.90;;;;;;5094657;28;20460;-76
2023/08/03 10:51:50;;;;;;;0.20;0.20;;;22.70;99.90;;;;;;5094579;28;20051;-73
2023/08/03 10:54:18;;;;;;;0.20;0.20;;;22.90;99.90;;;;;;5094643;28;20165;-75
2023/08/03 10:57:08;;;;;;;0.30;0.30;;;23.10;99.90;;;;;;5094443;28;20093;-77
2023/08/03 10:59:40;;;;;;;0.20;0.20;;;23.40;99.90;;;;;;5094450;28;20032;-76
2023/08/03 11:02:33;;;;;;;0.30;0.30;;;23.50;99.90;;;;;;5094398;28;20488;-78
2023/08/03 11:05:04;;;;;;;0.20;0.20;;;23.60;99.90;;;;;;5094428;28;20036;-75
2023/08/03 11:07:33;;;;;;;0.20;0.20;;;23.70;99.90;;;;;;5093989;28;20050;-77
2023/08/03 11:10:04;;;;;;;0.22;0.22;;;23.70;99.90;;;;;;5094751;28;20422;-76
2023/08/03 11:12:31;;;;;;;0.30;0.30;;;23.70;99.90;;;;;;5094701;28;20032;-78
2023/08/03 11:14:57;;;;;;;0.38;0.38;;;23.60;99.90;;;;;;5094196;28;20119;-78
2023/08/03 11:17:28;;;;;;;1.60;0.30;;;23.60;99.90;;;;;;5094144;28;20044;-77
2023/08/03 11:19:55;;;;;;;0.60;0.60;;;23.70;99.90;;;;;;5093967;28;20375;-77
2023/08/03 11:22:22;;;;;;;0.30;0.30;;;23.70;99.90;;;;;;5093956;28;20132;-76
2023/08/03 11:24:49;;;;;;;0.20;0.20;;;23.80;99.90;;;;;;5094066;28;20096;-76
2023/08/03 11:27:16;;;;;;;0.40;0.40;;;23.80;99.90;;;;;;5093975;28;20055;-76
2023/08/03 11:29:41;;;;;;;0.20;0.20;;;23.80;99.90;;;;;;5093963;28;20032;-75
2023/08/03 11:32:08;;;;;;;0.30;0.30;;;23.90;99.90;;;;;;5094024;28;20116;-77
2023/08/03 11:34:34;;;;;;;0.30;0.30;;;23.90;99.90;;;;;;5093893;28;20044;-76
2023/08/03 11:37:00;;;;;;;0.20;0.20;;;23.90;99.90;;;;;;5092383;28;20039;-76
2023/08/03 11:39:25;;;;;;;0.20;0.20;;;23.90;99.90;;;;;;5093785;28;20082;-76
2023/08/03 11:41:54;;;;;;;0.40;0.40;;;23.90;99.90;;;;;;5093787;28;20437;-78
2023/08/03 11:44:23;;;;;;;0.20;0.20;;;23.80;99.90;;;;;;5093766;28;20356;-77
2023/08/03 11:47:00;;;;;;;0.20;0.20;;;23.70;99.90;;;;;;5093917;28;20084;-78
2023/08/03 11:49:27;;;;;;;;;;;23.70;99.90;;;;;;5094050;28;20581;-78
2023/08/03 11:51:59;;;;;;;0.20;0.20;;;23.80;99.90;;;;;;5093691;28;19923;-75
2023/08/03 11:54:25;;;;;;;0.20;0.20;;;23.90;99.90;;;;;;5093748;28;20079;-75
2023/08/03 11:56:51;;;;;;;0.30;0.30;;;24.10;99.90;;;;;;5093689;28;20040;-78
2023/08/03 11:59:17;;;;;;;0.30;0.30;;;24.20;99.90;;;;;;5093559;28;20533;-77
2023/08/03 12:01:47;;;;;;;0.20;0.20;;;24.30;99.90;;;;;;5093608;28;20704;-75
2023/08/03 12:04:13;;;;;;;0.20;0.20;;;24.40;99.90;;;;;;5093517;28;20051;-75
2023/08/03 12:06:52;;;;;;;0.20;0.20;;;24.40;99.90;;;;;;5093566;28;20071;-76
2023/08/03 12:09:25;;;;;;;0.40;0.40;;;24.30;99.90;;;;;;5095640;28;20042;-72
2023/08/03 12:12:02;;;;;;;0.20;0.20;;;24.10;99.90;;;;;;5097573;28;20127;-72
2023/08/03 12:14:28;;;;;;;0.88;0.30;;;24.00;99.90;;;;;;5097733;28;20094;-73
2023/08/03 12:16:54;;;;;;;0.20;0.20;;;24.00;99.90;;;;;;5097592;28;20083;-73
2023/08/03 12:19:20;;;;;;;0.27;0.27;;;23.90;99.90;;;;;;5097357;28;20066;-73
2023/08/03 12:21:46;;;;;;;;;;;24.00;99.90;;;;;;5097971;28;20055;-73
2023/08/03 12:24:12;;;;;;;0.32;0.32;;;24.00;99.90;;;;;;5097506;28;20352;-72
2023/08/03 12:26:38;;;;;;;0.20;0.20;;;23.90;99.90;;;;;;5097492;28;20122;-73
2023/08/03 12:29:04;;;;;;;0.20;0.20;;;23.80;99.90;;;;;;5097155;28;20071;-73
2023/08/03 12:31:31;;;;;;;0.20;0.20;;;23.90;99.90;;;;;;5098029;28;20055;-74
2023/08/03 12:33:57;;;;;;;0.20;0.20;;;23.90;99.90;;;;;;5097298;28;20054;-72
2023/08/03 12:36:23;;;;;;;;;;;24.10;99.90;;;;;;5097808;28;20056;-73
2023/08/03 12:38:49;;;;;;;0.20;0.20;;;24.20;99.90;;;;;;5097179;28;20359;-73
2023/08/03 12:41:15;;;;;;;0.20;0.20;;;24.30;99.90;;;;;;5097055;28;20040;-75
2023/08/03 12:43:40;;;;;;;0.20;0.20;;;24.30;99.90;;;;;;5097073;28;20109;-75
2023/08/03 12:46:07;;;;;;;0.20;0.20;;;24.20;99.90;;;;;;5097014;28;20048;-73
2023/08/03 12:48:32;;;;;;;0.30;0.30;;;24.10;99.90;;;;;;5096997;28;20324;-73